createdAt,value
2022-11-08T04:02:26.891Z,99.90
2022-11-08T04:04:53.922Z,99.90
2022-11-08T04:07:20.786Z,99.90
2022-11-08T04:09:47.635Z,99.90
2022-11-08T04:12:33.238Z,99.90
2022-11-08T04:15:15.256Z,99.90
2022-11-08T04:18:03.288Z,99.90
2022-11-08T04:20:49.490Z,99.90
2022-11-08T04:23:17.403Z,99.90
2022-11-08T04:25:44.637Z,99.90
2022-11-08T04:28:11.756Z,99.90
2022-11-08T04:30:38.668Z,99.90
2022-11-08T04:33:07.053Z,99.90
2022-11-08T04:35:34.167Z,99.90
2022-11-08T04:38:02.144Z,99.90
2022-11-08T04:40:30.976Z,99.90
2022-11-08T04:42:57.960Z,99.90
2022-11-08T04:45:24.911Z,99.90
2022-11-08T04:47:52.014Z,99.90
2022-11-08T04:50:20.259Z,99.90
2022-11-08T04:52:51.805Z,99.90
2022-11-08T04:55:18.732Z,99.90
2022-11-08T04:57:45.597Z,99.90
2022-11-08T05:00:13.677Z,99.90
2022-11-08T05:02:40.684Z,99.90
2022-11-08T05:05:08.873Z,99.90
2022-11-08T05:07:37.149Z,99.90
2022-11-08T05:10:04.848Z,99.90
2022-11-08T05:12:31.756Z,99.90
2022-11-08T05:14:58.637Z,99.90
2022-11-08T05:17:25.487Z,99.90
2022-11-08T05:20:11.161Z,99.90
2022-11-08T05:22:58.060Z,99.90
2022-11-08T05:25:25.171Z,99.90
2022-11-08T05:27:52.084Z,99.90
2022-11-08T05:30:19.001Z,99.90
2022-11-08T05:32:45.926Z,99.90
2022-11-08T05:35:12.801Z,99.90
2022-11-08T05:37:42.260Z,99.90
2022-11-08T05:40:11.725Z,99.90
2022-11-08T05:42:38.759Z,99.90
2022-11-08T05:45:09.409Z,99.90
2022-11-08T05:47:36.579Z,99.90
2022-11-08T05:50:03.795Z,99.90
2022-11-08T05:52:31.204Z,99.90
2022-11-08T05:54:59.872Z,99.90
2022-11-08T05:57:26.729Z,99.90
2022-11-08T05:59:53.618Z,99.90
2022-11-08T06:02:20.704Z,99.90
2022-11-08T06:04:47.693Z,99.90
2022-11-08T06:07:14.628Z,99.90
2022-11-08T06:09:41.514Z,99.90
2022-11-08T06:12:09.771Z,99.90
2022-11-08T06:14:36.670Z,99.90
2022-11-08T06:17:03.619Z,99.90
2022-11-08T06:19:30.519Z,99.90
2022-11-08T06:21:57.461Z,99.90
2022-11-08T06:24:24.407Z,99.90
2022-11-08T06:26:51.318Z,99.90
2022-11-08T06:29:19.800Z,99.90
2022-11-08T06:31:46.655Z,99.90
2022-11-08T06:34:13.558Z,99.90
2022-11-08T06:36:40.472Z,99.90
2022-11-08T06:39:07.466Z,99.90
2022-11-08T06:41:34.507Z,99.90
2022-11-08T06:44:01.364Z,99.90
2022-11-08T06:46:29.674Z,99.90
2022-11-08T06:48:56.615Z,99.90
2022-11-08T06:51:23.539Z,99.90
2022-11-08T06:53:50.522Z,99.90
2022-11-08T06:56:17.605Z,99.90
2022-11-08T06:58:44.514Z,99.90
2022-11-08T07:01:11.865Z,99.90
2022-11-08T07:03:40.281Z,99.90
2022-11-08T07:06:08.160Z,99.90
2022-11-08T07:08:35.528Z,99.90
2022-11-08T07:11:03.274Z,99.90
2022-11-08T07:13:30.400Z,99.90
2022-11-08T07:15:58.773Z,99.90
2022-11-08T07:18:26.558Z,99.90
2022-11-08T07:20:58.771Z,99.90
2022-11-08T07:23:25.720Z,99.90
2022-11-08T07:25:52.785Z,99.90
2022-11-08T07:28:20.174Z,99.90
2022-11-08T07:30:48.279Z,99.90
2022-11-08T07:33:16.472Z,99.90
2022-11-08T07:35:46.366Z,99.90
2022-11-08T07:38:14.751Z,99.90
2022-11-08T07:40:42.202Z,99.90
2022-11-08T07:43:12.236Z,99.90
2022-11-08T07:45:40.128Z,99.90
2022-11-08T07:48:11.878Z,99.90
2022-11-08T07:50:40.232Z,99.90
2022-11-08T07:53:07.659Z,99.90
2022-11-08T07:55:37.660Z,99.90
2022-11-08T07:58:04.922Z,99.90
2022-11-08T08:00:36.242Z,99.90
2022-11-08T08:03:04.757Z,99.90
2022-11-08T08:05:34.599Z,99.90
2022-11-08T08:08:02.413Z,99.90
2022-11-08T08:10:30.238Z,99.90
2022-11-08T08:12:58.590Z,99.90
2022-11-08T08:15:25.912Z,99.90
2022-11-08T08:17:52.845Z,99.90
2022-11-08T08:20:19.851Z,99.90
2022-11-08T08:22:47.741Z,99.90
2022-11-08T08:25:15.553Z,99.90
2022-11-08T08:27:47.023Z,99.90
2022-11-08T08:30:15.943Z,99.90
2022-11-08T08:32:43.009Z,99.90
2022-11-08T08:35:10.528Z,99.90
2022-11-08T08:37:37.542Z,99.90
2022-11-08T08:40:05.412Z,99.90
2022-11-08T08:42:33.506Z,99.80
2022-11-08T08:45:01.185Z,99.70
2022-11-08T08:47:29.688Z,98.50
2022-11-08T08:49:56.656Z,98.50
2022-11-08T08:52:23.542Z,98.60
2022-11-08T08:54:50.447Z,99.30
2022-11-08T08:57:17.287Z,99.10
2022-11-08T09:02:32.370Z,99.70
2022-11-08T09:04:59.283Z,99.30
2022-11-08T09:07:26.174Z,98.50
2022-11-08T09:09:53.080Z,98.60
2022-11-08T09:12:20.088Z,98.80
2022-11-08T09:14:46.932Z,99.20
2022-11-08T09:17:13.799Z,99.60
2022-11-08T09:19:42.014Z,99.90
2022-11-08T09:22:08.946Z,99.90
2022-11-08T09:24:35.879Z,99.90
2022-11-08T09:27:03.728Z,99.90
2022-11-08T09:29:30.959Z,99.90
2022-11-08T09:31:57.944Z,99.70
2022-11-08T09:34:25.064Z,99.70
2022-11-08T09:36:53.435Z,99.90
2022-11-08T09:39:20.560Z,99.90
2022-11-08T09:42:17.692Z,99.90
2022-11-08T09:45:26.801Z,99.90
2022-11-08T09:47:58.051Z,99.80
2022-11-08T09:50:30.991Z,99.20
2022-11-08T09:53:07.829Z,98.60
2022-11-08T09:55:38.749Z,97.90
2022-11-08T09:58:18.613Z,98.30
2022-11-08T10:00:45.871Z,99.00
2022-11-08T10:03:15.860Z,98.00
2022-11-08T10:05:47.726Z,97.50
2022-11-08T10:08:26.400Z,98.10
2022-11-08T10:11:07.362Z,97.10
2022-11-08T10:13:44.914Z,96.40
2022-11-08T10:16:23.037Z,97.00
2022-11-08T10:19:15.847Z,97.20
2022-11-08T10:21:53.936Z,97.40
2022-11-08T10:24:35.265Z,97.40
2022-11-08T10:27:03.136Z,97.90
2022-11-08T10:29:36.304Z,96.70
2022-11-08T10:32:12.670Z,97.10
2022-11-08T10:34:46.346Z,97.20
2022-11-08T10:37:15.558Z,97.30
2022-11-08T10:39:53.249Z,97.80
2022-11-08T10:42:29.164Z,98.00
2022-11-08T10:44:56.087Z,98.20
2022-11-08T10:47:27.111Z,98.70
2022-11-08T10:49:58.319Z,98.10
2022-11-08T10:52:38.292Z,98.70
2022-11-08T10:55:08.527Z,98.20
2022-11-08T10:57:38.838Z,98.50
2022-11-08T11:00:29.280Z,98.50
2022-11-08T11:02:58.314Z,97.70
2022-11-08T11:05:30.525Z,97.50
2022-11-08T11:08:03.824Z,97.00
2022-11-08T11:10:34.182Z,96.80
2022-11-08T11:13:04.446Z,97.10
2022-11-08T11:15:35.629Z,96.50
2022-11-08T11:18:02.966Z,96.30
2022-11-08T11:20:31.153Z,96.60
2022-11-08T11:22:59.129Z,95.60
2022-11-08T11:25:26.997Z,96.20
2022-11-08T11:27:57.994Z,96.90
2022-11-08T11:30:29.270Z,97.00
2022-11-08T11:33:19.526Z,96.60
2022-11-08T11:35:50.347Z,97.20
2022-11-08T11:38:24.512Z,96.70
2022-11-08T11:40:54.932Z,96.80
2022-11-08T11:43:29.742Z,96.50
2022-11-08T11:46:02.923Z,97.00
2022-11-08T11:48:31.195Z,95.40
2022-11-08T11:50:59.115Z,95.90
2022-11-08T11:53:27.848Z,97.30
2022-11-08T11:56:19.485Z,97.20
2022-11-08T11:59:11.915Z,96.60
2022-11-08T12:01:53.948Z,96.20
2022-11-08T12:04:35.595Z,95.80
2022-11-08T12:07:09.801Z,95.70
2022-11-08T12:09:53.488Z,94.70
2022-11-08T12:12:31.600Z,94.10
2022-11-08T12:15:07.737Z,94.10
2022-11-08T12:18:01.345Z,93.10
2022-11-08T12:20:38.622Z,91.00
2022-11-08T12:23:20.174Z,86.80
2022-11-08T12:25:55.750Z,85.10
2022-11-08T12:28:42.073Z,85.60
2022-11-08T12:31:26.404Z,85.60
2022-11-08T12:34:10.202Z,85.50
2022-11-08T12:36:46.227Z,84.90
2022-11-08T12:39:23.783Z,87.30
2022-11-08T12:41:58.569Z,85.80
2022-11-08T12:44:41.848Z,82.30
2022-11-08T12:47:23.030Z,83.30
2022-11-08T12:49:58.824Z,82.70
2022-11-08T12:52:44.734Z,84.00
2022-11-08T12:55:18.008Z,84.70
2022-11-08T12:57:45.864Z,83.40
2022-11-08T13:00:17.628Z,83.20
2022-11-08T13:02:56.319Z,83.80
2022-11-08T13:05:27.327Z,84.10
2022-11-08T13:08:00.104Z,85.00
2022-11-08T13:10:35.443Z,85.30
2022-11-08T13:13:14.959Z,85.20
2022-11-08T13:16:14.502Z,85.90
2022-11-08T13:18:48.573Z,85.80
2022-11-08T13:21:38.612Z,86.50
2022-11-08T13:24:48.524Z,86.20
2022-11-08T13:27:24.568Z,86.90
2022-11-08T13:29:53.300Z,88.40
2022-11-08T13:32:26.900Z,88.00
2022-11-08T13:35:03.012Z,88.50
2022-11-08T13:37:46.108Z,89.10
2022-11-08T13:40:35.764Z,87.70
2022-11-08T13:43:23.509Z,88.50
2022-11-08T13:45:51.148Z,87.50
2022-11-08T13:48:41.895Z,85.80
2022-11-08T13:51:40.352Z,85.80
2022-11-08T13:54:47.895Z,85.70
2022-11-08T13:57:20.194Z,86.10
2022-11-08T13:59:56.967Z,86.60
2022-11-08T14:02:47.570Z,87.00
2022-11-08T14:05:31.550Z,88.20
2022-11-08T14:08:25.951Z,88.60
2022-11-08T14:11:27.751Z,89.10
2022-11-08T14:14:18.048Z,89.80
2022-11-08T14:17:00.297Z,90.10
2022-11-08T14:19:31.903Z,90.50
2022-11-08T14:22:01.720Z,90.70
2022-11-08T14:24:34.967Z,90.90
2022-11-08T14:27:01.978Z,90.70
2022-11-08T14:29:28.872Z,91.00
2022-11-08T14:32:06.578Z,91.10
2022-11-08T14:34:35.211Z,91.10
2022-11-08T14:37:03.408Z,91.00
2022-11-08T14:39:34.452Z,91.00
2022-11-08T14:42:03.460Z,91.20
2022-11-08T14:44:31.199Z,91.20
2022-11-08T14:46:59.390Z,91.10
2022-11-08T14:49:32.312Z,91.40
2022-11-08T14:52:14.853Z,91.40
2022-11-08T14:54:45.526Z,91.40
2022-11-08T14:57:30.555Z,91.70
2022-11-08T14:59:58.467Z,91.90
2022-11-08T15:02:25.996Z,91.90
2022-11-08T15:04:53.399Z,92.10
2022-11-08T15:07:22.174Z,92.60
2022-11-08T15:09:51.026Z,92.90
2022-11-08T15:12:20.516Z,93.10
2022-11-08T15:14:53.400Z,93.40
2022-11-08T15:17:32.500Z,93.60
2022-11-08T15:20:05.757Z,93.60
2022-11-08T15:22:34.318Z,93.60
2022-11-08T15:25:16.098Z,93.60
2022-11-08T15:27:46.471Z,93.70
2022-11-08T15:30:16.624Z,93.90
2022-11-08T15:32:43.953Z,94.30
2022-11-08T15:35:23.080Z,94.30
2022-11-08T15:37:52.675Z,94.80
2022-11-08T15:40:27.289Z,95.10
2022-11-08T15:42:54.712Z,95.60
2022-11-08T15:45:26.025Z,96.00
2022-11-08T15:47:59.388Z,96.30
2022-11-08T15:50:30.894Z,96.40
2022-11-08T15:52:59.732Z,96.50
2022-11-08T15:55:30.390Z,96.90
2022-11-08T15:57:59.136Z,97.50
2022-11-08T16:00:28.320Z,97.90
2022-11-08T16:02:56.002Z,98.30
2022-11-08T16:05:25.264Z,98.60
2022-11-08T16:07:52.960Z,98.70
2022-11-08T16:10:31.346Z,98.80
2022-11-08T16:13:00.766Z,98.90
2022-11-08T16:15:30.295Z,99.00
2022-11-08T16:17:57.465Z,99.10
2022-11-08T16:20:27.661Z,99.20
2022-11-08T16:22:55.400Z,99.30
2022-11-08T16:25:23.361Z,99.40
2022-11-08T16:27:53.866Z,99.50
2022-11-08T16:30:21.083Z,99.60
2022-11-08T16:32:48.062Z,99.70
2022-11-08T16:35:15.751Z,99.80
2022-11-08T16:37:43.251Z,99.80
2022-11-08T16:40:16.866Z,99.90
2022-11-08T16:42:44.282Z,99.90
2022-11-08T16:45:13.579Z,99.90
2022-11-08T16:47:42.936Z,99.90
2022-11-08T16:50:18.193Z,99.90
2022-11-08T16:52:45.620Z,99.90
2022-11-08T16:55:17.624Z,99.90
2022-11-08T16:57:45.079Z,99.90
2022-11-08T17:00:15.950Z,99.90
2022-11-08T17:02:46.057Z,99.90
2022-11-08T17:05:17.388Z,99.90
2022-11-08T17:07:44.450Z,99.90
2022-11-08T17:10:16.365Z,99.90
2022-11-08T17:12:43.360Z,99.90
2022-11-08T17:15:13.932Z,99.90
2022-11-08T17:17:41.807Z,99.90
2022-11-08T17:20:11.067Z,99.90
2022-11-08T17:22:38.255Z,99.90
2022-11-08T17:25:06.516Z,99.90
2022-11-08T17:27:33.552Z,99.90
2022-11-08T17:30:01.971Z,99.90
2022-11-08T17:32:30.364Z,99.90
2022-11-08T17:34:57.258Z,99.90
2022-11-08T17:37:24.252Z,99.80
2022-11-08T17:39:52.929Z,99.80
2022-11-08T17:42:20.055Z,99.50
2022-11-08T17:44:47.099Z,99.50
2022-11-08T17:47:14.068Z,99.60
2022-11-08T17:49:44.010Z,99.50
2022-11-08T17:52:11.826Z,99.50
2022-11-08T17:54:38.812Z,99.50
2022-11-08T17:57:05.715Z,99.30
2022-11-08T17:59:32.597Z,99.40
2022-11-08T18:01:59.554Z,99.70
2022-11-08T18:04:26.507Z,99.30
2022-11-08T18:06:54.920Z,99.30
2022-11-08T18:09:22.236Z,99.30
2022-11-08T18:11:49.449Z,99.60
2022-11-08T18:14:17.666Z,99.30
2022-11-08T18:16:45.162Z,99.40
2022-11-08T18:19:12.177Z,99.40
2022-11-08T18:21:39.138Z,99.30
2022-11-08T18:24:07.550Z,99.30
2022-11-08T18:26:34.477Z,99.30
2022-11-08T18:29:02.489Z,99.30
2022-11-08T18:31:30.395Z,99.60
2022-11-08T18:33:57.593Z,99.50
2022-11-08T18:36:26.537Z,99.60
2022-11-08T18:38:54.459Z,99.60
2022-11-08T18:41:27.136Z,99.60
2022-11-08T18:43:55.012Z,99.60
2022-11-08T18:46:24.788Z,99.60
2022-11-08T18:48:51.810Z,99.70
2022-11-08T18:51:21.460Z,99.70
2022-11-08T18:53:48.911Z,99.70
2022-11-08T18:56:16.231Z,99.70
2022-11-08T18:58:45.409Z,99.70
2022-11-08T19:01:12.981Z,99.70
2022-11-08T19:03:39.924Z,99.80
2022-11-08T19:06:07.286Z,99.90
2022-11-08T19:08:34.493Z,99.90
2022-11-08T19:11:03.263Z,99.90
2022-11-08T19:13:31.851Z,99.90
2022-11-08T19:16:01.511Z,99.90
2022-11-08T19:18:30.355Z,99.90
2022-11-08T19:20:58.463Z,99.90
2022-11-08T19:23:25.848Z,99.90
2022-11-08T19:25:57.176Z,99.90
2022-11-08T19:28:25.095Z,99.90
2022-11-08T19:30:55.372Z,99.90
2022-11-08T19:33:24.820Z,99.90
2022-11-08T19:35:53.340Z,99.90
2022-11-08T19:38:21.366Z,99.90
2022-11-08T19:40:48.571Z,99.90
2022-11-08T19:43:16.651Z,99.90
2022-11-08T19:45:50.614Z,99.90
2022-11-08T19:48:18.224Z,99.90
2022-11-08T19:50:46.859Z,99.90
2022-11-08T19:53:13.744Z,99.90
2022-11-08T19:55:40.635Z,99.90
2022-11-08T19:58:07.475Z,99.90
2022-11-08T20:00:34.342Z,99.90
2022-11-08T20:03:02.057Z,99.90
2022-11-08T20:05:28.901Z,99.90
2022-11-08T20:07:57.376Z,99.90
2022-11-08T20:10:24.431Z,99.90
2022-11-08T20:12:51.346Z,99.90
2022-11-08T20:15:18.364Z,99.90
2022-11-08T20:17:45.313Z,99.90
2022-11-08T20:20:12.682Z,99.90
2022-11-08T20:22:41.050Z,99.90
2022-11-08T20:25:09.849Z,99.90
2022-11-08T20:27:36.769Z,99.90
2022-11-08T20:30:04.299Z,99.90
2022-11-08T20:32:32.368Z,99.90
2022-11-08T20:34:59.257Z,99.90
2022-11-08T20:37:26.250Z,99.90
2022-11-08T20:39:53.130Z,99.90
2022-11-08T20:42:22.928Z,99.90
2022-11-08T20:44:50.005Z,99.90
2022-11-08T20:47:16.886Z,99.90
2022-11-08T20:49:43.767Z,99.90
2022-11-08T20:52:10.824Z,99.90
2022-11-08T20:54:42.662Z,99.90
2022-11-08T20:57:10.806Z,99.90
2022-11-08T20:59:39.103Z,99.90
2022-11-08T21:02:06.201Z,99.90
2022-11-08T21:04:33.209Z,99.90
2022-11-08T21:08:00.335Z,99.90
2022-11-08T21:09:50.118Z,99.90
2022-11-08T21:12:18.022Z,99.90
2022-11-08T21:14:46.318Z,99.90
2022-11-08T21:17:22.042Z,99.90
2022-11-08T21:19:50.877Z,99.90
2022-11-08T21:22:18.253Z,99.90
2022-11-08T21:24:47.917Z,99.90
2022-11-08T21:27:15.429Z,99.90
2022-11-08T21:29:42.480Z,99.90
2022-11-08T21:32:10.711Z,99.90
2022-11-08T21:34:37.596Z,99.90
2022-11-08T21:37:04.545Z,99.90
2022-11-08T21:39:31.417Z,99.90
2022-11-08T21:41:58.304Z,99.90
2022-11-08T21:44:25.131Z,99.90
2022-11-08T21:46:51.986Z,99.90
2022-11-08T21:49:20.191Z,99.90
2022-11-08T21:51:47.063Z,99.90
2022-11-08T21:54:15.351Z,99.90
2022-11-08T21:56:42.324Z,99.90
2022-11-08T21:59:10.607Z,99.90
2022-11-08T22:01:37.803Z,99.90
2022-11-08T22:04:04.863Z,99.90
2022-11-08T22:06:33.205Z,99.90
2022-11-08T22:09:00.139Z,99.90
2022-11-08T22:11:27.019Z,99.90
2022-11-08T22:13:53.895Z,99.90
2022-11-08T22:16:20.823Z,99.90
2022-11-08T22:19:04.258Z,99.90
2022-11-08T22:21:39.212Z,99.90
2022-11-08T22:24:07.601Z,99.90
2022-11-08T22:26:35.312Z,99.90
2022-11-08T22:29:03.418Z,99.90
2022-11-08T22:31:30.622Z,99.90
2022-11-08T22:33:57.481Z,99.90
2022-11-08T22:36:24.351Z,99.90
2022-11-08T22:38:52.544Z,99.90
2022-11-08T22:41:20.411Z,99.90
2022-11-08T22:43:48.066Z,99.90
2022-11-08T22:46:15.380Z,99.90
2022-11-08T22:48:42.270Z,99.90
2022-11-08T22:51:09.666Z,99.90
2022-11-08T22:53:36.628Z,99.90
2022-11-08T22:56:10.791Z,99.90
2022-11-08T22:58:38.868Z,99.90
2022-11-08T23:01:06.495Z,99.90
2022-11-08T23:03:33.382Z,99.90
2022-11-08T23:06:00.309Z,99.90
2022-11-08T23:08:27.625Z,99.90
2022-11-08T23:11:13.328Z,99.90
2022-11-08T23:14:00.231Z,99.90
2022-11-08T23:16:35.054Z,99.90
2022-11-08T23:19:22.234Z,99.90
2022-11-08T23:22:07.716Z,99.90
2022-11-08T23:24:34.629Z,99.90
2022-11-08T23:27:21.333Z,99.90
2022-11-08T23:30:08.288Z,99.90
2022-11-08T23:32:35.904Z,99.90
2022-11-08T23:35:03.020Z,99.90
2022-11-08T23:37:30.117Z,99.90
2022-11-08T23:40:15.725Z,99.90
2022-11-08T23:43:01.380Z,99.90
2022-11-08T23:45:29.570Z,99.90
2022-11-08T23:47:56.451Z,99.90
2022-11-08T23:50:23.332Z,99.90
2022-11-08T23:52:50.191Z,99.90
2022-11-08T23:55:17.209Z,99.90
2022-11-08T23:57:44.104Z,99.90
